YPTN/KTR METAR and TAF weather

Enter ICAO airport designator
Station Type Date Time Source
YPTN METAR 2022/01/29 02:00 UTC NOAA

YPTN 290200Z AUTO 31013KT 9999 // ////// 30/24 Q1005


Station Type Date Time Source
YPTN Decoded METAR 2022/01/29 02:00 UTC NOAA

Tindal / Katherine, Australia (YPTN) 14-26S 132-16E 109M
Jan 28, 2022 - 09:00 PM EST / 2022.01.29 0200 UTC
Wind: from the NW (310 degrees) at 15 MPH (13 KT):0
Visibility: greater than 7 mile(s):0
Temperature: 86 F (30 C)
Heat index: 95.0 F (35.0 C):1
Dew Point: 75 F (24 C)
Relative Humidity: 70%
Pressure (altimeter): 29.68 in. Hg (1005 hPa)
ob: YPTN 290200Z AUTO 31013KT 9999 // ////// 30/24 Q1005
cycle: 2

Station Type Date Time Source
YPTN TAF 2022/01/28 18:57 UTC NOAA

TAF
AMD TAF
AMD YPTN 281856Z 2818/2918 31005KT 9999 -SHRA BKN012
FM290000 30014KT 9999 -SHRA SCT025
FM291500 30008KT 9999 -SHRA BKN012
TEMPO 2900/2918 VRB20G45KT 1000 TSRA BKN010 SCT025CB

Example: see airport list